createdAt,value
2018-11-29T00:00:40.142Z,100979.25
2018-11-29T00:03:09.810Z,100968.98
2018-11-29T00:05:38.961Z,100968.98
2018-11-29T00:08:07.461Z,100969.88
2018-11-29T00:10:35.914Z,100960.52
2018-11-29T00:13:04.798Z,100935.68
2018-11-29T00:15:33.252Z,100935.33
2018-11-29T00:18:01.812Z,100924.41
2018-11-29T00:20:30.253Z,100934.06
2018-11-29T00:22:59.405Z,100926.59
2018-11-29T00:25:27.845Z,100931.13
2018-11-29T00:27:56.272Z,100924.56
2018-11-29T00:30:25.632Z,100920.75
2018-11-29T00:32:55.165Z,100917.34
2018-11-29T00:35:23.817Z,100923.16
2018-11-29T00:37:52.640Z,100924.17
2018-11-29T00:40:22.360Z,100906.54
2018-11-29T00:42:51.557Z,100910.50
2018-11-29T00:45:21.068Z,100909.19
2018-11-29T00:47:49.712Z,100912.20
2018-11-29T00:50:18.780Z,100899.78
2018-11-29T00:52:48.155Z,100900.76
2018-11-29T00:55:18.812Z,100913.00
2018-11-29T00:57:47.995Z,100919.05
2018-11-29T01:00:22.382Z,100909.87
2018-11-29T01:02:51.076Z,100899.42
2018-11-29T01:05:49.949Z,100888.56
2018-11-29T01:08:18.402Z,100893.32
2018-11-29T01:10:46.874Z,100879.92
2018-11-29T01:13:15.293Z,100882.45
2018-11-29T01:15:44.048Z,100887.24
2018-11-29T01:18:12.909Z,100889.83
2018-11-29T01:20:41.289Z,100890.37
2018-11-29T01:23:09.749Z,100901.65
2018-11-29T01:25:38.275Z,100900.45
2018-11-29T01:28:06.751Z,100900.09
2018-11-29T01:30:35.132Z,100902.20
2018-11-29T01:33:04.112Z,100896.77
2018-11-29T01:35:32.642Z,100903.16
2018-11-29T01:38:01.105Z,100903.08
2018-11-29T01:40:30.295Z,100900.27
2018-11-29T01:42:58.880Z,100893.89
2018-11-29T01:45:27.387Z,100894.73
2018-11-29T01:47:56.436Z,100894.45
2018-11-29T01:50:25.397Z,100899.44
2018-11-29T01:52:53.881Z,100896.12
2018-11-29T01:55:23.334Z,100900.80
2018-11-29T01:57:51.755Z,100903.03
2018-11-29T02:00:20.648Z,100898.34
2018-11-29T02:02:50.522Z,100905.91
2018-11-29T02:05:19.129Z,100902.91
2018-11-29T02:07:48.486Z,100903.38
2018-11-29T02:10:26.779Z,100889.77
2018-11-29T02:12:55.839Z,100884.41
2018-11-29T02:15:24.521Z,100884.77
2018-11-29T02:17:53.014Z,100873.11
2018-11-29T02:20:21.463Z,100878.70
2018-11-29T02:22:49.941Z,100890.58
2018-11-29T02:25:18.792Z,100898.15
2018-11-29T02:27:47.315Z,100891.94
2018-11-29T02:30:18.187Z,100894.09
2018-11-29T02:32:46.814Z,100893.69
2018-11-29T02:35:15.267Z,100902.95
2018-11-29T02:37:43.713Z,100902.27
2018-11-29T02:40:13.193Z,100901.00
2018-11-29T02:42:41.835Z,100896.90
2018-11-29T02:45:13.043Z,100890.95
2018-11-29T02:47:41.590Z,100879.62
2018-11-29T02:50:11.982Z,100880.52
2018-11-29T02:52:40.403Z,100879.78
2018-11-29T02:55:10.455Z,100875.10
2018-11-29T02:57:39.458Z,100877.30
2018-11-29T03:00:17.790Z,100867.99
2018-11-29T03:02:46.237Z,100870.90
2018-11-29T03:05:14.856Z,100871.42
2018-11-29T03:07:43.514Z,100871.00
2018-11-29T03:10:13.732Z,100866.80
2018-11-29T03:12:42.903Z,100870.31
2018-11-29T03:15:12.558Z,100879.14
2018-11-29T03:17:41.000Z,100874.09
2018-11-29T03:20:10.697Z,100879.20
2018-11-29T03:22:39.524Z,100869.27
2018-11-29T03:25:09.438Z,100882.73
2018-11-29T03:27:37.931Z,100871.42
2018-11-29T03:30:08.626Z,100864.27
2018-11-29T03:32:37.073Z,100866.37
2018-11-29T03:35:05.686Z,100864.27
2018-11-29T03:37:34.181Z,100867.17
2018-11-29T03:40:02.753Z,100855.81
2018-11-29T03:42:31.217Z,100856.64
2018-11-29T03:44:59.825Z,100856.27
2018-11-29T03:47:28.306Z,100865.17
2018-11-29T03:49:57.354Z,100864.27
2018-11-29T03:52:25.859Z,100855.91
2018-11-29T03:54:54.277Z,100857.70
2018-11-29T03:57:22.838Z,100871.63
2018-11-29T03:59:51.401Z,100880.93
2018-11-29T04:02:19.789Z,100896.57
2018-11-29T04:04:48.612Z,100896.19
2018-11-29T04:07:17.396Z,100888.98
2018-11-29T04:09:45.989Z,100886.09
2018-11-29T04:12:14.398Z,100882.82
2018-11-29T04:14:42.807Z,100877.73
2018-11-29T04:17:11.254Z,100870.95
2018-11-29T04:19:39.648Z,100864.25
2018-11-29T04:22:08.867Z,100850.32
2018-11-29T04:24:37.358Z,100857.06
2018-11-29T04:27:06.077Z,100858.46
2018-11-29T04:29:34.525Z,100870.30
2018-11-29T04:32:02.933Z,100868.25
2018-11-29T04:34:31.334Z,100856.84
2018-11-29T04:36:59.794Z,100851.36
2018-11-29T04:39:28.275Z,100849.68
2018-11-29T04:41:56.659Z,100859.83
2018-11-29T04:44:25.273Z,100850.53
2018-11-29T04:46:53.793Z,100856.14
2018-11-29T04:49:22.295Z,100851.88
2018-11-29T04:51:51.038Z,100856.09
2018-11-29T04:54:19.865Z,100849.45
2018-11-29T04:56:48.569Z,100852.41
2018-11-29T04:59:17.028Z,100848.23
2018-11-29T05:01:45.920Z,100843.61
2018-11-29T05:04:14.349Z,100827.66
2018-11-29T05:06:42.731Z,100831.45
2018-11-29T05:09:11.148Z,100827.70
2018-11-29T05:11:39.535Z,100822.20
2018-11-29T05:14:08.017Z,100814.33
2018-11-29T05:16:36.414Z,100809.33
2018-11-29T05:19:04.994Z,100808.56
2018-11-29T05:21:33.521Z,100798.00
2018-11-29T05:24:02.408Z,100800.63
2018-11-29T05:26:30.867Z,100814.94
2018-11-29T05:28:59.747Z,100811.19
2018-11-29T05:31:28.318Z,100806.70
2018-11-29T05:33:56.705Z,100800.38
2018-11-29T05:36:26.311Z,100809.69
2018-11-29T05:38:54.931Z,100807.72
2018-11-29T05:41:23.569Z,100804.30
2018-11-29T05:43:52.123Z,100807.63
2018-11-29T05:46:20.550Z,100807.67
2018-11-29T05:49:19.832Z,100812.81
2018-11-29T05:51:48.353Z,100811.13
2018-11-29T05:54:19.278Z,100808.64
2018-11-29T05:56:47.945Z,100813.78
2018-11-29T05:59:16.422Z,100815.52
2018-11-29T06:01:45.386Z,100816.82
2018-11-29T06:04:13.825Z,100813.83
2018-11-29T06:06:42.711Z,100815.23
2018-11-29T06:09:11.328Z,100814.43
2018-11-29T06:11:40.342Z,100811.56
2018-11-29T06:14:09.027Z,100803.59
2018-11-29T06:16:38.153Z,100806.16
2018-11-29T06:19:08.719Z,100800.22
2018-11-29T06:21:37.388Z,100810.84
2018-11-29T06:24:06.044Z,100811.65
2018-11-29T06:26:34.647Z,100799.85
2018-11-29T06:29:03.176Z,100792.73
2018-11-29T06:31:31.692Z,100794.50
2018-11-29T06:34:00.158Z,100784.38
2018-11-29T06:36:29.552Z,100786.52
2018-11-29T06:38:58.082Z,100792.50
2018-11-29T06:41:26.625Z,100789.94
2018-11-29T06:43:55.740Z,100776.98
2018-11-29T06:46:24.188Z,100768.91
2018-11-29T06:48:52.608Z,100765.61
2018-11-29T06:51:21.023Z,100776.49
2018-11-29T06:53:54.768Z,100776.07
2018-11-29T06:56:23.289Z,100774.72
2018-11-29T06:58:51.913Z,100779.32
2018-11-29T07:01:20.388Z,100774.69
2018-11-29T07:03:48.902Z,100784.00
2018-11-29T07:06:17.472Z,100777.72
2018-11-29T07:08:46.019Z,100773.08
2018-11-29T07:11:14.438Z,100770.47
2018-11-29T07:13:42.832Z,100776.02
2018-11-29T07:16:11.317Z,100765.91
2018-11-29T07:18:39.764Z,100770.17
2018-11-29T07:21:19.342Z,100773.16
2018-11-29T07:23:48.024Z,100768.59
2018-11-29T07:26:16.463Z,100766.80
2018-11-29T07:28:45.089Z,100766.88
2018-11-29T07:31:13.527Z,100761.39
2018-11-29T07:33:42.028Z,100758.83
2018-11-29T07:36:10.594Z,100758.02
2018-11-29T07:38:39.138Z,100758.48
2018-11-29T07:41:07.738Z,100754.69
2018-11-29T07:43:36.216Z,100752.66
2018-11-29T07:46:04.686Z,100754.08
2018-11-29T07:48:33.222Z,100750.34
2018-11-29T07:51:01.773Z,100764.34
2018-11-29T07:53:30.185Z,100777.03
2018-11-29T07:55:58.853Z,100779.14
2018-11-29T07:58:27.618Z,100768.52
2018-11-29T08:00:56.146Z,100771.55
2018-11-29T08:03:24.533Z,100767.44
2018-11-29T08:05:52.990Z,100757.62
2018-11-29T08:08:21.557Z,100763.57
2018-11-29T08:10:49.988Z,100756.02
2018-11-29T08:13:18.468Z,100754.40
2018-11-29T08:15:47.113Z,100766.17
2018-11-29T08:18:15.513Z,100759.46
2018-11-29T08:20:43.967Z,100756.55
2018-11-29T08:23:12.389Z,100755.31
2018-11-29T08:25:40.939Z,100757.45
2018-11-29T08:28:09.310Z,100761.29
2018-11-29T08:30:37.685Z,100760.91
2018-11-29T08:33:06.400Z,100754.64
2018-11-29T08:35:34.826Z,100752.53
2018-11-29T08:38:03.671Z,100753.80
2018-11-29T08:40:31.934Z,100747.08
2018-11-29T08:43:00.424Z,100758.86
2018-11-29T08:45:29.478Z,100759.77
2018-11-29T08:47:57.996Z,100760.23
2018-11-29T08:50:26.541Z,100758.48
2018-11-29T08:52:55.654Z,100757.27
2018-11-29T08:55:24.776Z,100757.80
2018-11-29T08:57:53.526Z,100750.33
2018-11-29T09:00:22.354Z,100737.70
2018-11-29T09:02:50.948Z,100739.03
2018-11-29T09:05:19.399Z,100742.92
2018-11-29T09:07:48.757Z,100739.70
2018-11-29T09:10:18.512Z,100737.20
2018-11-29T09:12:47.066Z,100736.33
2018-11-29T09:15:16.432Z,100736.72
2018-11-29T09:17:44.901Z,100741.87
2018-11-29T09:20:20.551Z,100741.05
2018-11-29T09:22:49.097Z,100738.13
2018-11-29T09:25:18.424Z,100730.05
2018-11-29T09:27:47.004Z,100720.34
2018-11-29T09:30:17.343Z,100717.36
2018-11-29T09:32:46.684Z,100710.60
2018-11-29T09:35:15.272Z,100714.87
2018-11-29T09:37:43.811Z,100712.83
2018-11-29T09:40:14.400Z,100714.16
2018-11-29T09:42:43.042Z,100720.52
2018-11-29T09:45:16.450Z,100722.65
2018-11-29T09:47:45.894Z,100715.05
2018-11-29T09:50:15.515Z,100718.94
2018-11-29T09:52:44.005Z,100711.78
2018-11-29T09:55:14.394Z,100705.02
2018-11-29T09:57:43.345Z,100708.90
2018-11-29T10:00:16.186Z,100708.55
2018-11-29T10:02:48.657Z,100708.67
2018-11-29T10:05:17.118Z,100704.92
2018-11-29T10:07:45.572Z,100698.20
2018-11-29T10:10:14.034Z,100690.25
2018-11-29T10:12:42.532Z,100692.01
2018-11-29T10:15:12.412Z,100683.17
2018-11-29T10:17:40.811Z,100681.53
2018-11-29T10:20:15.991Z,100684.52
2018-11-29T10:22:44.458Z,100681.63
2018-11-29T10:25:14.238Z,100685.08
2018-11-29T10:27:44.406Z,100684.67
2018-11-29T10:30:15.017Z,100679.70
2018-11-29T10:32:43.528Z,100669.17
2018-11-29T10:35:11.955Z,100668.81
2018-11-29T10:37:40.749Z,100669.31
2018-11-29T10:40:10.250Z,100662.21
2018-11-29T10:42:38.724Z,100661.78
2018-11-29T10:45:12.519Z,100659.67
2018-11-29T10:47:41.686Z,100651.17
2018-11-29T10:50:11.608Z,100649.88
2018-11-29T10:52:40.130Z,100640.59
2018-11-29T10:55:14.528Z,100636.34
2018-11-29T10:57:43.011Z,100635.48
2018-11-29T11:00:22.858Z,100632.09
2018-11-29T11:02:56.848Z,100636.34
2018-11-29T11:05:25.273Z,100641.08
2018-11-29T11:07:53.692Z,100647.02
2018-11-29T11:10:22.177Z,100640.65
2018-11-29T11:12:50.753Z,100633.87
2018-11-29T11:15:19.974Z,100626.26
2018-11-29T11:17:48.571Z,100631.78
2018-11-29T11:20:16.900Z,100633.52
2018-11-29T11:22:45.408Z,100637.77
2018-11-29T11:25:13.887Z,100631.07
2018-11-29T11:27:42.300Z,100627.69
2018-11-29T11:30:13.638Z,100636.17
2018-11-29T11:32:42.146Z,100625.20
2018-11-29T11:35:11.113Z,100623.93
2018-11-29T11:37:39.594Z,100625.61
2018-11-29T11:40:10.635Z,100615.42
2018-11-29T11:42:39.169Z,100610.27
2018-11-29T11:45:09.793Z,100619.18
2018-11-29T11:47:38.353Z,100618.27
2018-11-29T11:50:10.911Z,100613.19
2018-11-29T11:52:39.164Z,100601.81
2018-11-29T11:55:08.268Z,100596.73
2018-11-29T11:57:36.718Z,100588.66
2018-11-29T12:00:11.942Z,100596.32
2018-11-29T12:02:40.490Z,100602.21
2018-11-29T12:05:10.028Z,100597.61
2018-11-29T12:07:38.504Z,100594.23
2018-11-29T12:10:09.246Z,100599.80
2018-11-29T12:12:37.734Z,100586.65
2018-11-29T12:15:10.940Z,100584.11
2018-11-29T12:17:40.965Z,100576.93
2018-11-29T12:20:12.746Z,100587.98
2018-11-29T12:22:41.352Z,100584.19
2018-11-29T12:25:12.916Z,100589.27
2018-11-29T12:27:41.359Z,100589.28
2018-11-29T12:30:14.191Z,100580.81
2018-11-29T12:32:42.634Z,100582.09
2018-11-29T12:35:11.127Z,100581.25
2018-11-29T12:37:39.633Z,100584.64
2018-11-29T12:40:12.028Z,100586.74
2018-11-29T12:42:40.499Z,100575.30
2018-11-29T12:45:11.225Z,100571.91
2018-11-29T12:47:39.784Z,100580.83
2018-11-29T12:50:16.824Z,100563.44
2018-11-29T12:52:45.268Z,100565.55
2018-11-29T12:55:14.820Z,100567.26
2018-11-29T12:57:43.283Z,100564.72
2018-11-29T13:00:17.982Z,100553.70
2018-11-29T13:02:49.556Z,100547.77
2018-11-29T13:05:18.169Z,100543.96
2018-11-29T13:07:46.635Z,100529.12
2018-11-29T13:10:16.466Z,100532.53
2018-11-29T13:12:44.984Z,100518.53
2018-11-29T13:15:16.005Z,100523.64
2018-11-29T13:17:44.360Z,100515.16
2018-11-29T13:20:14.262Z,100508.82
2018-11-29T13:22:42.706Z,100505.83
2018-11-29T13:25:14.510Z,100499.93
2018-11-29T13:27:43.022Z,100496.95
2018-11-29T13:30:13.646Z,100499.07
2018-11-29T13:32:42.238Z,100489.33
2018-11-29T13:35:15.982Z,100484.66
2018-11-29T13:37:47.372Z,100481.27
2018-11-29T13:40:15.827Z,100480.44
2018-11-29T13:42:44.291Z,100485.50
2018-11-29T13:45:12.785Z,100484.26
2018-11-29T13:47:41.715Z,100481.27
2018-11-29T13:50:12.307Z,100482.56
2018-11-29T13:52:40.685Z,100471.95
2018-11-29T13:55:10.332Z,100467.73
2018-11-29T13:57:38.792Z,100463.08
2018-11-29T14:00:16.015Z,100455.45
2018-11-29T14:02:46.997Z,100463.91
2018-11-29T14:05:13.633Z,100462.21
2018-11-29T14:07:42.063Z,100466.03
2018-11-29T14:10:14.028Z,100454.19
2018-11-29T14:12:42.533Z,100452.05
2018-11-29T14:15:12.750Z,100452.05
2018-11-29T14:17:41.168Z,100444.00
2018-11-29T14:20:10.810Z,100446.13
2018-11-29T14:22:39.244Z,100447.81
2018-11-29T14:25:10.927Z,100446.13
2018-11-29T14:27:40.795Z,100446.54
2018-11-29T14:30:26.085Z,100441.03
2018-11-29T14:32:55.468Z,100431.30
2018-11-29T14:35:23.866Z,100426.22
2018-11-29T14:37:52.282Z,100425.38
2018-11-29T14:40:22.795Z,100419.42
2018-11-29T14:42:51.289Z,100426.23
2018-11-29T14:45:22.692Z,100430.88
2018-11-29T14:47:51.275Z,100433.83
2018-11-29T14:50:24.171Z,100440.63
2018-11-29T14:52:52.811Z,100435.55
2018-11-29T14:55:21.855Z,100432.98
2018-11-29T14:57:49.772Z,100441.05
2018-11-29T15:00:18.231Z,100439.75
2018-11-29T15:02:46.750Z,100437.20
2018-11-29T15:05:18.832Z,100438.90
2018-11-29T15:07:47.268Z,100437.65
2018-11-29T15:10:15.827Z,100427.89
2018-11-29T15:12:44.291Z,100424.09
2018-11-29T15:15:13.345Z,100416.02
2018-11-29T15:17:42.683Z,100412.63
2018-11-29T15:20:15.530Z,100415.59
2018-11-29T15:22:43.942Z,100412.64
2018-11-29T15:25:12.393Z,100410.53
2018-11-29T15:27:40.783Z,100400.78
2018-11-29T15:30:12.273Z,100405.45
2018-11-29T15:32:40.663Z,100398.67
2018-11-29T15:35:09.510Z,100394.88
2018-11-29T15:37:37.958Z,100388.09
2018-11-29T15:40:09.072Z,100379.62
2018-11-29T15:42:37.440Z,100380.88
2018-11-29T15:45:08.192Z,100377.94
2018-11-29T15:47:36.668Z,100385.98
2018-11-29T15:50:07.188Z,100383.43
2018-11-29T15:52:35.600Z,100387.23
2018-11-29T15:55:04.750Z,100385.13
2018-11-29T15:57:34.977Z,100380.89
2018-11-29T16:00:01.618Z,100377.09
2018-11-29T16:02:30.174Z,100376.66
2018-11-29T16:04:58.569Z,100373.26
2018-11-29T16:07:27.735Z,100375.40
2018-11-29T16:09:56.121Z,100380.47
2018-11-29T16:12:24.567Z,100385.98
2018-11-29T16:14:52.982Z,100380.05
2018-11-29T16:17:21.453Z,100378.78
2018-11-29T16:19:49.875Z,100373.70
2018-11-29T16:22:18.285Z,100369.89
2018-11-29T16:24:46.743Z,100369.47
2018-11-29T16:27:15.321Z,100367.34
2018-11-29T16:29:43.795Z,100371.16
2018-11-29T16:32:12.907Z,100360.97
2018-11-29T16:34:41.344Z,100354.20
2018-11-29T16:37:09.766Z,100354.62
2018-11-29T16:39:38.199Z,100348.28
2018-11-29T16:42:06.710Z,100348.69
2018-11-29T16:44:35.263Z,100344.88
2018-11-29T16:47:03.705Z,100343.62
2018-11-29T16:49:32.105Z,100333.46
2018-11-29T16:52:00.689Z,100338.13
2018-11-29T16:54:29.156Z,100332.63
2018-11-29T16:56:57.651Z,100330.52
2018-11-29T16:59:26.218Z,100325.43
2018-11-29T17:01:54.691Z,100327.53
2018-11-29T17:04:23.286Z,100320.78
2018-11-29T17:06:51.738Z,100315.28
2018-11-29T17:09:20.200Z,100305.53
2018-11-29T17:11:50.564Z,100307.23
2018-11-29T17:14:19.002Z,100308.90
2018-11-29T17:16:47.533Z,100293.66
2018-11-29T17:19:16.005Z,100294.10
2018-11-29T17:21:44.481Z,100283.92
2018-11-29T17:24:13.129Z,100283.08
2018-11-29T17:26:41.567Z,100289.86
2018-11-29T17:29:10.037Z,100286.04
2018-11-29T17:31:38.536Z,100280.53
2018-11-29T17:34:07.055Z,100277.14
2018-11-29T17:36:35.596Z,100278.84
2018-11-29T17:39:05.429Z,100274.61
2018-11-29T17:41:34.001Z,100269.53
2018-11-29T17:44:02.502Z,100265.31
2018-11-29T17:46:30.948Z,100274.19
2018-11-29T17:49:00.341Z,100261.48
2018-11-29T17:51:28.941Z,100246.69
2018-11-29T17:53:57.338Z,100231.02
2018-11-29T17:56:25.784Z,100229.32
2018-11-29T17:58:54.302Z,100232.27
2018-11-29T18:01:22.709Z,100206.00
2018-11-29T18:03:51.128Z,100181.88
2018-11-29T18:06:19.517Z,100175.92
2018-11-29T18:08:47.948Z,100192.87
2018-11-29T18:11:16.345Z,100187.77
2018-11-29T18:13:45.859Z,100156.85
2018-11-29T18:16:14.677Z,100143.69
2018-11-29T18:18:43.067Z,100128.01
2018-11-29T18:21:11.597Z,100138.96
2018-11-29T18:23:40.037Z,100145.29
2018-11-29T18:26:08.469Z,100131.68
2018-11-29T18:28:36.907Z,100140.11
2018-11-29T18:31:05.370Z,100135.39
2018-11-29T18:33:33.884Z,100156.94
2018-11-29T18:36:02.349Z,100165.84
2018-11-29T18:38:30.711Z,100174.81
2018-11-29T18:40:59.316Z,100186.26
2018-11-29T18:43:27.704Z,100215.07
2018-11-29T18:45:56.127Z,100229.09
2018-11-29T18:48:24.668Z,100201.58
2018-11-29T18:50:53.100Z,100183.80
2018-11-29T18:53:21.688Z,100175.33
2018-11-29T18:55:50.193Z,100192.34
2018-11-29T18:58:18.653Z,100202.95
2018-11-29T19:00:47.089Z,100195.31
2018-11-29T19:03:15.629Z,100243.18
2018-11-29T19:05:44.192Z,100265.23
2018-11-29T19:08:12.424Z,100241.16
2018-11-29T19:11:11.636Z,100278.84
2018-11-29T19:13:40.134Z,100272.05
2018-11-29T19:16:09.966Z,100253.41
2018-11-29T19:18:38.754Z,100270.78
2018-11-29T19:21:07.517Z,100256.39
2018-11-29T19:23:35.951Z,100253.02
2018-11-29T19:26:06.007Z,100260.64
2018-11-29T19:28:34.352Z,100237.77
2018-11-29T19:31:03.244Z,100252.17
2018-11-29T19:33:31.732Z,100247.09
2018-11-29T19:36:00.861Z,100251.32
2018-11-29T19:38:30.471Z,100204.34
2018-11-29T19:40:59.012Z,100231.88
2018-11-29T19:43:34.659Z,100206.44
2018-11-29T19:46:03.314Z,100217.45
2018-11-29T19:48:32.759Z,100217.90
2018-11-29T19:51:01.169Z,100222.95
2018-11-29T19:53:32.163Z,100235.68
2018-11-29T19:56:01.918Z,100246.27
2018-11-29T19:58:30.336Z,100235.67
2018-11-29T20:00:58.896Z,100239.06
2018-11-29T20:03:27.389Z,100239.50
2018-11-29T20:05:55.929Z,100232.69
2018-11-29T20:08:24.535Z,100228.91
2018-11-29T20:10:53.096Z,100225.94
2018-11-29T20:13:21.521Z,100231.44
2018-11-29T20:15:52.583Z,100237.38
2018-11-29T20:18:21.348Z,100235.69
2018-11-29T20:20:50.365Z,100239.05
2018-11-29T20:23:18.895Z,100238.23
2018-11-29T20:25:48.437Z,100229.34
2018-11-29T20:28:16.884Z,100230.17
2018-11-29T20:30:45.321Z,100226.36
2018-11-29T20:33:13.930Z,100226.36
2018-11-29T20:35:42.403Z,100222.98
2018-11-29T20:38:11.323Z,100222.15
2018-11-29T20:40:41.655Z,100223.83
2018-11-29T20:43:10.308Z,100228.05
2018-11-29T20:45:53.609Z,100228.48
2018-11-29T20:48:26.429Z,100222.56
2018-11-29T20:50:56.686Z,100219.17
2018-11-29T20:53:32.938Z,100217.91
2018-11-29T20:56:02.022Z,100227.65
2018-11-29T20:58:30.486Z,100230.19
2018-11-29T21:00:59.059Z,100228.50
2018-11-29T21:03:27.985Z,100239.06
2018-11-29T21:05:56.698Z,100228.05
2018-11-29T21:08:25.665Z,100222.14
2018-11-29T21:10:54.218Z,100226.36
2018-11-29T21:13:23.983Z,100216.22
2018-11-29T21:15:52.592Z,100216.19
2018-11-29T21:18:21.026Z,100217.46
2018-11-29T21:20:49.563Z,100220.43
2018-11-29T21:23:19.408Z,100222.56
2018-11-29T21:25:47.883Z,100220.45
2018-11-29T21:28:16.513Z,100220.44
2018-11-29T21:30:44.975Z,100212.41
2018-11-29T21:33:13.854Z,100205.20
2018-11-29T21:35:42.320Z,100212.83
2018-11-29T21:38:12.816Z,100211.55
2018-11-29T21:40:42.735Z,100216.62
2018-11-29T21:43:11.864Z,100217.45
2018-11-29T21:45:40.392Z,100203.09
2018-11-29T21:48:09.294Z,100198.00
2018-11-29T21:50:37.796Z,100185.70
2018-11-29T21:53:06.362Z,100172.98
2018-11-29T21:55:34.869Z,100164.49
2018-11-29T21:58:03.615Z,100179.30
2018-11-29T22:00:33.304Z,100189.45
2018-11-29T22:03:01.932Z,100203.41
2018-11-29T22:05:30.391Z,100195.78
2018-11-29T22:07:58.874Z,100194.07
2018-11-29T22:10:27.317Z,100192.38
2018-11-29T22:12:56.104Z,100180.09
2018-11-29T22:15:24.722Z,100181.43
2018-11-29T22:18:30.262Z,100185.27
2018-11-29T22:21:02.126Z,100190.76
2018-11-29T22:23:31.424Z,100195.87
2018-11-29T22:26:01.029Z,100190.38
2018-11-29T22:28:30.213Z,100175.98
2018-11-29T22:30:59.690Z,100169.64
2018-11-29T22:33:28.547Z,100167.94
2018-11-29T22:35:57.225Z,100166.69
2018-11-29T22:38:26.344Z,100166.72
2018-11-29T22:40:54.897Z,100181.92
2018-11-29T22:43:23.395Z,100177.26
2018-11-29T22:45:51.958Z,100160.75
2018-11-29T22:48:20.469Z,100166.69
2018-11-29T22:50:48.994Z,100164.16
2018-11-29T22:53:17.952Z,100177.29
2018-11-29T22:55:46.497Z,100175.16
2018-11-29T22:58:15.025Z,100167.52
2018-11-29T23:00:48.681Z,100167.09
2018-11-29T23:03:17.638Z,100164.56
2018-11-29T23:05:46.189Z,100163.72
2018-11-29T23:08:14.677Z,100150.59
2018-11-29T23:10:43.148Z,100146.38
2018-11-29T23:13:11.626Z,100148.49
2018-11-29T23:15:40.222Z,100153.55
2018-11-29T23:18:09.010Z,100150.59
2018-11-29T23:20:38.252Z,100150.18
2018-11-29T23:23:06.695Z,100152.30
2018-11-29T23:25:35.763Z,100150.17
2018-11-29T23:28:05.086Z,100155.27
2018-11-29T23:30:33.859Z,100155.27
2018-11-29T23:33:02.343Z,100162.91
2018-11-29T23:35:30.867Z,100169.25
2018-11-29T23:37:59.355Z,100154.87
2018-11-29T23:40:27.834Z,100149.78
2018-11-29T23:42:56.353Z,100146.84
2018-11-29T23:45:24.731Z,100154.04
2018-11-29T23:47:53.239Z,100161.22
2018-11-29T23:50:21.697Z,100166.28
2018-11-29T23:52:50.165Z,100161.23
2018-11-29T23:55:20.528Z,100157.00
2018-11-29T23:57:48.965Z,100162.50
